createdAt,value
2022-10-18T00:01:00.649Z,101537.09
2022-10-18T00:03:28.287Z,101533.81
2022-10-18T00:05:56.365Z,101531.06
2022-10-18T00:08:24.298Z,101524.16
2022-10-18T00:10:52.409Z,101522.75
2022-10-18T00:13:21.071Z,101515.16
2022-10-18T00:15:52.537Z,101508.19
2022-10-18T00:18:20.635Z,101499.66
2022-10-18T00:21:02.647Z,101498.00
2022-10-18T00:23:32.163Z,101497.53
2022-10-18T00:26:02.139Z,101490.22
2022-10-18T00:28:30.112Z,101480.66
2022-10-18T00:30:58.061Z,101489.56
2022-10-18T00:33:25.743Z,101477.16
2022-10-18T00:35:53.153Z,101474.63
2022-10-18T00:38:20.644Z,101462.13
2022-10-18T00:40:48.309Z,101458.63
2022-10-18T00:43:17.235Z,101456.38
2022-10-18T00:45:44.895Z,101451.06
2022-10-18T00:48:15.567Z,101443.44
2022-10-18T00:50:43.640Z,101445.97
2022-10-18T00:53:17.869Z,101435.50
2022-10-18T00:55:46.190Z,101430.00
2022-10-18T00:58:16.784Z,101412.13
2022-10-18T01:00:44.308Z,101408.69
2022-10-18T01:03:11.884Z,101404.56
2022-10-18T01:05:44.798Z,101399.16
2022-10-18T01:08:40.661Z,101399.09
2022-10-18T01:11:52.583Z,101388.59
2022-10-18T01:14:52.907Z,101374.69
2022-10-18T01:18:04.385Z,101373.28
2022-10-18T01:20:59.632Z,101361.47
2022-10-18T01:23:45.071Z,101363.56
2022-10-18T01:26:44.899Z,101352.03
2022-10-18T01:29:49.249Z,101352.59
2022-10-18T01:32:22.889Z,101340.50
2022-10-18T01:34:54.128Z,101333.06
2022-10-18T01:37:22.767Z,101331.34
2022-10-18T01:39:55.990Z,101331.28
2022-10-18T01:42:24.740Z,101324.28
2022-10-18T01:44:53.716Z,101319.84
2022-10-18T01:47:21.851Z,101319.66
2022-10-18T01:49:49.645Z,101321.56
2022-10-18T01:52:17.121Z,101307.47
2022-10-18T01:54:49.243Z,101297.94
2022-10-18T01:58:07.759Z,101299.06
2022-10-18T02:00:40.124Z,101296.31
2022-10-18T02:03:16.906Z,101295.94
2022-10-18T02:05:54.169Z,101296.69
2022-10-18T02:08:30.550Z,101296.41
2022-10-18T02:11:03.164Z,101287.63
2022-10-18T02:13:35.593Z,101285.06
2022-10-18T02:16:13.422Z,101275.25
2022-10-18T02:18:45.363Z,101274.47
2022-10-18T02:21:17.606Z,101261.34
2022-10-18T02:23:49.132Z,101248.00
2022-10-18T02:26:16.964Z,101255.53
2022-10-18T02:28:45.569Z,101249.03
2022-10-18T02:31:27.274Z,101254.41
2022-10-18T02:34:06.147Z,101254.53
2022-10-18T02:36:42.426Z,101247.31
2022-10-18T02:39:16.747Z,101250.38
2022-10-18T02:41:44.658Z,101240.19
2022-10-18T02:44:12.582Z,101235.91
2022-10-18T02:46:40.571Z,101225.91
2022-10-18T02:49:07.988Z,101222.59
2022-10-18T02:51:35.506Z,101222.69
2022-10-18T02:54:03.755Z,101230.94
2022-10-18T02:56:31.707Z,101224.59
2022-10-18T02:58:59.387Z,101220.16
2022-10-18T03:01:27.225Z,101221.22
2022-10-18T03:03:54.961Z,101218.44
2022-10-18T03:06:22.352Z,101214.94
2022-10-18T03:08:50.093Z,101207.66
2022-10-18T03:11:17.946Z,101199.00
2022-10-18T03:13:45.573Z,101196.34
2022-10-18T03:16:13.035Z,101196.75
2022-10-18T03:18:40.441Z,101200.13
2022-10-18T03:21:09.151Z,101196.75
2022-10-18T03:23:36.772Z,101186.91
2022-10-18T03:26:04.567Z,101188.59
2022-10-18T03:28:32.245Z,101180.09
2022-10-18T03:31:01.869Z,101170.78
2022-10-18T03:33:30.970Z,101167.47
2022-10-18T03:35:58.733Z,101169.06
2022-10-18T03:38:26.400Z,101161.06
2022-10-18T03:40:54.242Z,101150.28
2022-10-18T03:43:22.309Z,101145.19
2022-10-18T03:45:49.904Z,101161.13
2022-10-18T03:48:17.563Z,101161.25
2022-10-18T03:50:45.118Z,101157.47
2022-10-18T03:53:12.831Z,101167.47
2022-10-18T03:55:40.508Z,101165.50
2022-10-18T03:58:08.156Z,101156.16
2022-10-18T04:00:35.829Z,101155.53
2022-10-18T04:03:03.862Z,101151.28
2022-10-18T04:05:31.772Z,101152.31
2022-10-18T04:07:59.539Z,101155.81
2022-10-18T04:10:30.008Z,101166.19
2022-10-18T04:12:57.481Z,101160.28
2022-10-18T04:15:24.911Z,101162.47
2022-10-18T04:17:52.422Z,101179.19
2022-10-18T04:20:20.188Z,101189.22
2022-10-18T04:22:49.153Z,101184.00
2022-10-18T04:25:17.483Z,101182.00
2022-10-18T04:27:45.332Z,101188.34
2022-10-18T04:30:13.273Z,101201.28
2022-10-18T04:32:41.321Z,101196.94
2022-10-18T04:35:10.529Z,101189.22
2022-10-18T04:37:38.284Z,101194.31
2022-10-18T04:40:09.759Z,101200.53
2022-10-18T04:42:37.465Z,101214.41
2022-10-18T04:45:05.422Z,101209.22
2022-10-18T04:47:33.227Z,101205.16
2022-10-18T04:50:02.629Z,101196.97
2022-10-18T04:52:30.079Z,101188.31
2022-10-18T04:54:57.531Z,101159.22
2022-10-18T04:57:25.385Z,101153.34
2022-10-18T04:59:54.221Z,101169.97
2022-10-18T05:02:21.733Z,101190.84
2022-10-18T05:04:49.182Z,101205.13
2022-10-18T05:07:17.233Z,101211.06
2022-10-18T05:09:45.177Z,101224.81
2022-10-18T05:12:12.888Z,101217.47
2022-10-18T05:14:40.305Z,101155.16
2022-10-18T05:17:07.852Z,101172.00
2022-10-18T05:19:35.477Z,101133.25
2022-10-18T05:22:03.013Z,101129.09
2022-10-18T05:24:30.729Z,101181.91
2022-10-18T05:26:58.450Z,101199.16
2022-10-18T05:31:58.317Z,101203.31
2022-10-18T05:34:27.371Z,101213.59
2022-10-18T05:36:54.731Z,101216.63
2022-10-18T05:39:22.473Z,101219.84
2022-10-18T05:41:50.318Z,101213.59
2022-10-18T05:44:17.809Z,101209.25
2022-10-18T05:46:45.408Z,101211.91
2022-10-18T05:49:13.381Z,101219.00
2022-10-18T05:51:41.267Z,101220.41
2022-10-18T05:54:11.858Z,101215.13
2022-10-18T05:59:12.570Z,101213.03
2022-10-18T06:01:41.808Z,101211.25
2022-10-18T06:04:10.437Z,101217.28
2022-10-18T06:06:39.052Z,101214.75
2022-10-18T06:09:08.107Z,101216.44
2022-10-18T06:11:36.279Z,101223.22
2022-10-18T06:14:05.065Z,101229.78
2022-10-18T06:16:32.889Z,101228.91
2022-10-18T06:19:00.429Z,101228.81
2022-10-18T06:21:28.186Z,101230.88
2022-10-18T06:23:58.960Z,101235.31
2022-10-18T06:26:27.719Z,101235.13
2022-10-18T06:28:55.503Z,101232.47
2022-10-18T06:31:23.375Z,101224.53
2022-10-18T06:33:50.966Z,101228.91
2022-10-18T06:36:24.492Z,101239.28
2022-10-18T06:38:52.668Z,101231.22
2022-10-18T06:41:20.650Z,101224.88
2022-10-18T06:43:53.683Z,101222.22
2022-10-18T06:46:21.315Z,101210.63
2022-10-18T06:48:49.264Z,101229.88
2022-10-18T06:51:18.365Z,101228.75
2022-10-18T06:53:59.282Z,101236.69
2022-10-18T06:56:34.067Z,101234.13
2022-10-18T06:59:01.723Z,101233.38
2022-10-18T07:01:29.340Z,101231.28
2022-10-18T07:03:57.503Z,101240.66
2022-10-18T07:06:25.446Z,101242.41
2022-10-18T07:08:54.281Z,101239.31
2022-10-18T07:11:25.202Z,101245.63
2022-10-18T07:13:54.855Z,101237.91
2022-10-18T07:16:22.630Z,101231.94
2022-10-18T07:18:51.649Z,101239.03
2022-10-18T07:21:22.091Z,101246.97
2022-10-18T07:23:51.290Z,101254.47
2022-10-18T07:26:24.379Z,101246.75
2022-10-18T07:28:55.549Z,101246.31
2022-10-18T07:31:24.151Z,101259.34
2022-10-18T07:33:52.394Z,101257.03
2022-10-18T07:36:22.197Z,101265.50
2022-10-18T07:38:52.223Z,101268.06
2022-10-18T07:41:20.515Z,101263.94
2022-10-18T07:43:50.967Z,101262.25
2022-10-18T07:46:20.653Z,101258.41
2022-10-18T07:48:48.722Z,101261.41
2022-10-18T07:51:17.926Z,101256.84
2022-10-18T07:53:46.367Z,101249.56
2022-10-18T07:56:16.568Z,101256.16
2022-10-18T07:58:45.228Z,101249.41
2022-10-18T08:01:14.213Z,101247.59
2022-10-18T08:03:43.018Z,101252.59
2022-10-18T08:06:13.356Z,101258.03
2022-10-18T08:08:41.165Z,101261.94
2022-10-18T08:11:15.980Z,101270.53
2022-10-18T08:13:44.221Z,101265.56
2022-10-18T08:16:14.623Z,101272.66
2022-10-18T08:18:42.412Z,101270.47
2022-10-18T08:21:12.749Z,101273.31
2022-10-18T08:23:40.893Z,101274.31
2022-10-18T08:26:11.669Z,101279.63
2022-10-18T08:28:39.599Z,101272.53
2022-10-18T08:31:10.320Z,101282.19
2022-10-18T08:33:39.306Z,101282.84
2022-10-18T08:36:09.136Z,101288.88
2022-10-18T08:38:38.526Z,101293.72
2022-10-18T08:41:36.626Z,101281.75
2022-10-18T08:44:30.532Z,101281.63
2022-10-18T08:47:06.763Z,101274.75
2022-10-18T08:49:55.658Z,101280.97
2022-10-18T08:55:17.400Z,101282.69
2022-10-18T08:57:47.352Z,101294.44
2022-10-18T09:00:20.815Z,101288.19
2022-10-18T09:03:07.423Z,101284.59
2022-10-18T09:05:58.923Z,101289.78
2022-10-18T09:08:41.377Z,101296.06
2022-10-18T09:11:32.157Z,101282.81
2022-10-18T09:14:24.649Z,101275.81
2022-10-18T09:16:54.815Z,101282.19
2022-10-18T09:19:33.246Z,101283.47
2022-10-18T09:22:16.923Z,101285.19
2022-10-18T09:25:00.740Z,101295.16
2022-10-18T09:27:54.693Z,101302.06
2022-10-18T09:30:34.006Z,101295.53
2022-10-18T09:33:24.943Z,101303.00
2022-10-18T09:36:08.815Z,101300.69
2022-10-18T09:38:46.704Z,101314.41
2022-10-18T09:41:23.174Z,101303.81
2022-10-18T09:44:06.973Z,101305.84
2022-10-18T09:46:41.658Z,101301.50
2022-10-18T09:49:37.469Z,101302.97
2022-10-18T09:52:09.108Z,101303.03
2022-10-18T09:54:58.215Z,101310.69
2022-10-18T09:57:43.575Z,101304.94
2022-10-18T10:00:24.784Z,101301.66
2022-10-18T10:02:52.606Z,101297.31
2022-10-18T10:05:20.250Z,101306.13
2022-10-18T10:07:48.809Z,101307.81
2022-10-18T10:10:19.605Z,101298.94
2022-10-18T10:12:48.533Z,101295.50
2022-10-18T10:15:22.804Z,101289.63
2022-10-18T10:18:19.224Z,101279.19
2022-10-18T10:20:55.738Z,101278.88
2022-10-18T10:23:44.549Z,101275.84
2022-10-18T10:26:28.962Z,101269.69
2022-10-18T10:28:56.959Z,101262.91
2022-10-18T10:31:24.418Z,101265.84
2022-10-18T10:34:05.345Z,101265.63
2022-10-18T10:36:34.283Z,101267.91
2022-10-18T10:39:04.662Z,101268.75
2022-10-18T10:44:13.974Z,101273.50
2022-10-18T10:46:41.642Z,101274.78
2022-10-18T10:49:40.244Z,101264.47
2022-10-18T10:52:08.682Z,101269.03
2022-10-18T10:54:39.260Z,101278.88
2022-10-18T10:57:11.337Z,101271.66
2022-10-18T10:59:46.046Z,101272.09
2022-10-18T11:02:17.758Z,101276.53
2022-10-18T11:04:48.218Z,101270.81
2022-10-18T11:07:25.813Z,101273.59
2022-10-18T11:10:03.403Z,101275.28
2022-10-18T11:12:38.817Z,101279.94
2022-10-18T11:15:17.106Z,101275.28
2022-10-18T11:18:10.857Z,101272.53
2022-10-18T11:20:41.889Z,101271.56
2022-10-18T11:23:14.764Z,101274.75
2022-10-18T11:25:42.186Z,101281.44
2022-10-18T11:28:24.355Z,101276.16
2022-10-18T11:30:55.515Z,101286.75
2022-10-18T11:34:03.675Z,101275.28
2022-10-18T11:36:54.619Z,101282.19
2022-10-18T11:40:05.145Z,101283.25
2022-10-18T11:43:05.157Z,101287.91
2022-10-18T11:45:38.833Z,101280.91
2022-10-18T11:48:25.113Z,101279.75
2022-10-18T11:52:06.757Z,101275.59
2022-10-18T11:54:46.001Z,101271.66
2022-10-18T11:57:37.624Z,101273.19
2022-10-18T12:00:13.798Z,101275.41
2022-10-18T12:03:02.868Z,101269.31
2022-10-18T12:05:32.599Z,101272.16
2022-10-18T12:08:09.868Z,101274.81
2022-10-18T12:10:53.244Z,101277.13
2022-10-18T12:13:38.060Z,101271.94
2022-10-18T12:16:08.004Z,101264.28
2022-10-18T12:18:38.871Z,101266.66
2022-10-18T12:21:06.909Z,101266.81
2022-10-18T12:24:08.408Z,101266.50
2022-10-18T12:26:36.557Z,101269.44
2022-10-18T12:29:34.965Z,101271.25
2022-10-18T12:32:09.575Z,101272.66
2022-10-18T12:34:47.609Z,101269.69
2022-10-18T12:37:32.707Z,101276.41
2022-10-18T12:40:14.578Z,101274.47
2022-10-18T12:42:47.023Z,101279.47
2022-10-18T12:45:27.185Z,101266.00
2022-10-18T12:48:08.179Z,101268.75
2022-10-18T12:50:42.173Z,101277.69
2022-10-18T12:53:09.906Z,101280.41
2022-10-18T12:58:15.617Z,101268.31
2022-10-18T13:00:43.064Z,101263.34
2022-10-18T13:03:11.556Z,101249.66
2022-10-18T13:05:53.065Z,101260.97
2022-10-18T13:08:27.651Z,101255.34
2022-10-18T13:11:10.221Z,101260.97
2022-10-18T13:13:40.647Z,101251.00
2022-10-18T13:16:23.904Z,101259.16
2022-10-18T13:18:57.059Z,101252.25
2022-10-18T13:21:42.689Z,101252.59
2022-10-18T13:24:42.137Z,101243.16
2022-10-18T13:27:35.545Z,101245.94
2022-10-18T13:30:18.841Z,101247.81
2022-10-18T13:33:01.542Z,101246.44
2022-10-18T13:35:51.921Z,101249.94
2022-10-18T13:38:31.472Z,101258.63
2022-10-18T13:41:17.467Z,101255.66
2022-10-18T13:43:54.112Z,101249.59
2022-10-18T13:46:44.265Z,101254.38
2022-10-18T13:49:17.679Z,101249.38
2022-10-18T13:52:22.736Z,101258.47
2022-10-18T13:55:04.681Z,101261.97
2022-10-18T13:58:09.836Z,101259.06
2022-10-18T14:01:42.666Z,101255.50
2022-10-18T14:04:30.837Z,101254.34
2022-10-18T14:07:02.507Z,101259.31
2022-10-18T14:09:45.116Z,101251.16
2022-10-18T14:12:31.490Z,101254.47
2022-10-18T14:15:07.812Z,101255.31
2022-10-18T14:17:42.809Z,101255.59
2022-10-18T14:20:28.562Z,101254.78
2022-10-18T14:23:05.689Z,101254.22
2022-10-18T14:25:38.121Z,101253.16
2022-10-18T14:28:27.372Z,101245.34
2022-10-18T14:31:14.424Z,101242.91
2022-10-18T14:33:57.051Z,101244.69
2022-10-18T14:36:29.795Z,101242.13
2022-10-18T14:39:03.418Z,101240.66
2022-10-18T14:41:33.494Z,101229.66
2022-10-18T14:44:15.993Z,101238.44
2022-10-18T14:46:44.631Z,101240.66
2022-10-18T14:49:13.680Z,101246.97
2022-10-18T14:51:43.795Z,101245.50
2022-10-18T14:54:22.317Z,101246.66
2022-10-18T14:56:51.572Z,101253.47
2022-10-18T14:59:23.221Z,101248.41
2022-10-18T15:02:00.141Z,101249.78
2022-10-18T15:04:33.078Z,101249.66
2022-10-18T15:07:22.383Z,101247.44
2022-10-18T15:09:56.819Z,101240.44
2022-10-18T15:12:25.278Z,101247.53
2022-10-18T15:14:53.448Z,101251.13
2022-10-18T15:17:29.369Z,101248.69
2022-10-18T15:20:05.922Z,101250.59
2022-10-18T15:22:34.200Z,101245.19
2022-10-18T15:25:18.006Z,101246.03
2022-10-18T15:27:51.652Z,101236.19
2022-10-18T15:30:24.856Z,101234.59
2022-10-18T15:32:56.318Z,101229.84
2022-10-18T15:35:28.537Z,101229.06
2022-10-18T15:37:58.465Z,101227.47
2022-10-18T15:40:33.632Z,101227.69
2022-10-18T15:43:22.775Z,101222.69
2022-10-18T15:45:53.623Z,101221.38
2022-10-18T15:48:39.174Z,101231.88
2022-10-18T15:51:19.526Z,101229.97
2022-10-18T15:53:50.210Z,101236.88
2022-10-18T15:56:40.127Z,101234.69
2022-10-18T15:59:23.861Z,101236.16
2022-10-18T16:01:51.895Z,101229.72
2022-10-18T16:04:25.404Z,101224.34
2022-10-18T16:06:54.398Z,101229.63
2022-10-18T16:09:23.535Z,101224.53
2022-10-18T16:11:55.759Z,101221.91
2022-10-18T16:14:25.918Z,101225.47
2022-10-18T16:17:03.224Z,101226.34
2022-10-18T16:19:32.279Z,101225.47
2022-10-18T16:22:06.080Z,101224.72
2022-10-18T16:24:33.956Z,101223.66
2022-10-18T16:27:01.683Z,101225.00
2022-10-18T16:29:32.188Z,101225.22
2022-10-18T16:32:01.214Z,101220.72
2022-10-18T16:34:28.669Z,101227.94
2022-10-18T16:36:56.223Z,101230.28
2022-10-18T16:39:24.681Z,101225.09
2022-10-18T16:41:52.496Z,101218.09
2022-10-18T16:44:20.038Z,101218.09
2022-10-18T16:46:51.061Z,101215.06
2022-10-18T16:49:24.453Z,101213.88
2022-10-18T16:51:53.821Z,101221.75
2022-10-18T16:54:21.710Z,101223.34
2022-10-18T16:56:50.350Z,101215.38
2022-10-18T16:59:26.076Z,101220.41
2022-10-18T17:01:53.928Z,101218.69
2022-10-18T17:04:21.723Z,101214.97
2022-10-18T17:06:49.557Z,101221.25
2022-10-18T17:09:17.434Z,101209.81
2022-10-18T17:11:45.622Z,101213.38
2022-10-18T17:14:13.127Z,101212.09
2022-10-18T17:16:53.023Z,101215.38
2022-10-18T17:19:23.932Z,101214.53
2022-10-18T17:21:51.619Z,101213.38
2022-10-18T17:24:19.356Z,101211.69
2022-10-18T17:26:47.287Z,101208.31
2022-10-18T17:29:15.941Z,101207.56
2022-10-18T17:31:44.074Z,101201.50
2022-10-18T17:34:11.912Z,101209.03
2022-10-18T17:36:39.477Z,101199.41
2022-10-18T17:39:07.145Z,101207.44
2022-10-18T17:41:34.955Z,101209.16
2022-10-18T17:44:04.200Z,101201.50
2022-10-18T17:46:32.539Z,101197.28
2022-10-18T17:49:00.306Z,101199.06
2022-10-18T17:51:27.765Z,101196.75
2022-10-18T17:53:55.547Z,101190.59
2022-10-18T17:56:23.417Z,101183.31
2022-10-18T17:58:51.947Z,101184.13
2022-10-18T18:01:23.125Z,101179.03
2022-10-18T18:03:59.749Z,101181.47
2022-10-18T18:06:34.032Z,101185.94
2022-10-18T18:09:08.589Z,101179.59
2022-10-18T18:11:38.776Z,101174.38
2022-10-18T18:14:09.115Z,101174.09
2022-10-18T18:16:39.181Z,101174.31
2022-10-18T18:19:09.952Z,101171.44
2022-10-18T18:21:39.358Z,101173.97
2022-10-18T18:24:07.841Z,101170.50
2022-10-18T18:26:36.691Z,101170.31
2022-10-18T18:29:04.790Z,101169.44
2022-10-18T18:31:37.766Z,101168.59
2022-10-18T18:34:10.414Z,101161.59
2022-10-18T18:36:38.884Z,101148.16
2022-10-18T18:39:08.888Z,101157.72
2022-10-18T18:41:38.467Z,101154.94
2022-10-18T18:44:06.630Z,101154.00
2022-10-18T18:46:38.713Z,101160.03
2022-10-18T18:49:07.963Z,101162.59
2022-10-18T18:51:38.148Z,101156.31
2022-10-18T18:54:08.323Z,101160.78
2022-10-18T18:56:37.329Z,101153.78
2022-10-18T18:59:05.960Z,101157.28
2022-10-18T19:01:36.312Z,101155.50
2022-10-18T19:04:05.776Z,101158.13
2022-10-18T19:06:39.024Z,101158.13
2022-10-18T19:09:18.317Z,101154.44
2022-10-18T19:11:47.034Z,101154.44
2022-10-18T19:14:14.791Z,101148.50
2022-10-18T19:17:01.701Z,101158.34
2022-10-18T19:19:31.881Z,101147.75
2022-10-18T19:22:01.447Z,101142.47
2022-10-18T19:24:30.478Z,101143.41
2022-10-18T19:27:06.071Z,101147.75
2022-10-18T19:29:38.062Z,101152.00
2022-10-18T19:32:08.468Z,101154.00
2022-10-18T19:34:36.477Z,101148.78
2022-10-18T19:37:04.805Z,101148.78
2022-10-18T19:39:34.805Z,101150.72
2022-10-18T19:42:06.380Z,101150.91
2022-10-18T19:44:36.189Z,101150.06
2022-10-18T19:47:06.145Z,101153.66
2022-10-18T19:49:33.758Z,101155.44
2022-10-18T19:52:01.586Z,101159.16
2022-10-18T19:54:29.313Z,101147.72
2022-10-18T19:56:57.034Z,101150.47
2022-10-18T19:59:24.901Z,101148.91
2022-10-18T20:01:52.754Z,101144.34
2022-10-18T20:04:20.347Z,101150.56
2022-10-18T20:06:48.065Z,101153.97
2022-10-18T20:09:19.427Z,101159.69
2022-10-18T20:11:48.547Z,101154.69
2022-10-18T20:14:16.053Z,101151.09
2022-10-18T20:16:43.730Z,101154.78
2022-10-18T20:19:11.769Z,101143.91
2022-10-18T20:21:40.086Z,101155.53
2022-10-18T20:24:09.376Z,101152.25
2022-10-18T20:26:37.215Z,101148.09
2022-10-18T20:29:05.693Z,101152.66
2022-10-18T20:31:39.433Z,101145.88
2022-10-18T20:34:10.463Z,101147.56
2022-10-18T20:36:38.885Z,101152.94
2022-10-18T20:39:07.829Z,101152.09
2022-10-18T20:41:41.181Z,101150.44
2022-10-18T20:44:13.484Z,101143.72
2022-10-18T20:46:41.258Z,101145.63
2022-10-18T20:49:12.885Z,101148.72
2022-10-18T20:51:40.499Z,101148.06
2022-10-18T20:54:08.660Z,101146.06
2022-10-18T20:56:38.687Z,101150.59
2022-10-18T20:59:09.636Z,101149.34
2022-10-18T21:01:39.067Z,101145.06
2022-10-18T21:04:10.340Z,101157.28
2022-10-18T21:06:43.240Z,101149.34
2022-10-18T21:09:16.844Z,101150.28
2022-10-18T21:11:46.984Z,101146.47
2022-10-18T21:14:17.014Z,101141.59
2022-10-18T21:16:45.138Z,101152.47
2022-10-18T21:19:16.737Z,101147.81
2022-10-18T21:21:47.099Z,101144.53
2022-10-18T21:24:14.915Z,101149.69
2022-10-18T21:26:42.850Z,101144.41
2022-10-18T21:29:12.444Z,101153.19
2022-10-18T21:31:42.159Z,101154.25
2022-10-18T21:34:18.238Z,101143.16
2022-10-18T21:36:47.560Z,101147.66
2022-10-18T21:39:17.896Z,101156.66
2022-10-18T21:41:46.441Z,101151.91
2022-10-18T21:44:14.371Z,101160.16
2022-10-18T21:46:46.809Z,101160.16
2022-10-18T21:49:15.645Z,101161.56
2022-10-18T21:51:43.787Z,101161.97
2022-10-18T21:54:13.939Z,101159.25
2022-10-18T21:56:41.461Z,101152.25
2022-10-18T21:59:12.157Z,101154.16
2022-10-18T22:01:40.485Z,101159.84
2022-10-18T22:04:18.994Z,101157.00
2022-10-18T22:06:46.730Z,101164.63
2022-10-18T22:09:14.687Z,101161.31
2022-10-18T22:11:46.265Z,101157.94
2022-10-18T22:14:13.977Z,101158.78
2022-10-18T22:16:41.664Z,101169.38
2022-10-18T22:19:09.303Z,101161.44
2022-10-18T22:21:36.867Z,101158.78
2022-10-18T22:24:06.777Z,101167.78
2022-10-18T22:26:37.196Z,101153.31
2022-10-18T22:29:08.125Z,101163.81
2022-10-18T22:31:37.138Z,101165.06
2022-10-18T22:34:08.249Z,101153.91
2022-10-18T22:36:35.857Z,101163.44
2022-10-18T22:39:05.597Z,101155.97
2022-10-18T22:41:34.143Z,101169.28
2022-10-18T22:44:03.597Z,101164.09
2022-10-18T22:46:33.052Z,101164.00
2022-10-18T22:49:01.303Z,101169.97
2022-10-18T22:51:29.092Z,101169.88
2022-10-18T22:53:57.101Z,101177.41
2022-10-18T22:56:25.221Z,101177.41
2022-10-18T22:58:53.136Z,101172.69
2022-10-18T23:01:22.539Z,101170.44
2022-10-18T23:03:58.027Z,101177.97
2022-10-18T23:06:28.830Z,101172.78
2022-10-18T23:08:58.093Z,101175.41
2022-10-18T23:11:27.056Z,101174.09
2022-10-18T23:13:54.992Z,101177.91
2022-10-18T23:16:23.170Z,101172.59
2022-10-18T23:18:52.461Z,101180.72
2022-10-18T23:21:21.110Z,101173.06
2022-10-18T23:23:48.904Z,101177.13
2022-10-18T23:26:19.460Z,101179.66
2022-10-18T23:28:49.017Z,101182.69
2022-10-18T23:31:19.821Z,101184.75
2022-10-18T23:33:49.374Z,101187.78
2022-10-18T23:36:17.324Z,101191.66
2022-10-18T23:38:45.272Z,101195.66
2022-10-18T23:41:14.373Z,101201.13
2022-10-18T23:43:42.306Z,101196.34
2022-10-18T23:46:10.579Z,101199.06
2022-10-18T23:48:38.641Z,101191.88
2022-10-18T23:51:07.007Z,101205.75
2022-10-18T23:53:35.337Z,101204.31
2022-10-18T23:56:06.680Z,101206.47
2022-10-18T23:58:35.970Z,101214.88
